Time;durP1;ratioP1;P1;durP2;ratioP2;P2;SDS_P1;SDS_P2;PMS_P1;PMS_P2;Temp;Humidity;BMP_temperature;BMP_pressure;BME280_temperature;BME280_humidity;BME280_pressure;Samples;Min_cycle;Max_cycle;Signal;HPM_P1;HPM_P2
2022/07/14 00:00:41;;;;;;;6.25;2.08;;;20.80;62.00;;;;;;5111131;28;20078;-72
2022/07/14 00:03:07;;;;;;;5.85;1.85;;;20.80;62.00;;;;;;5113597;28;20032;-72
2022/07/14 00:05:32;;;;;;;6.70;2.00;;;20.70;62.20;;;;;;5113399;28;20083;-72
2022/07/14 00:07:58;;;;;;;6.65;2.42;;;20.60;62.20;;;;;;5113442;28;20094;-72
2022/07/14 00:10:25;;;;;;;6.97;2.42;;;20.60;62.30;;;;;;5113418;28;20028;-72
2022/07/14 00:12:51;;;;;;;6.88;2.20;;;20.60;62.30;;;;;;5113350;28;20387;-72
2022/07/14 00:15:17;;;;;;;8.10;2.20;;;20.60;62.40;;;;;;5113376;28;20088;-72
2022/07/14 00:17:42;;;;;;;7.45;1.98;;;20.50;62.60;;;;;;5113324;28;20055;-72
2022/07/14 00:20:09;;;;;;;5.45;2.33;;;20.50;62.90;;;;;;5113241;28;20028;-72
2022/07/14 00:22:34;;;;;;;7.15;2.20;;;20.60;63.10;;;;;;5113281;28;20387;-72
2022/07/14 00:25:00;;;;;;;8.45;2.25;;;20.50;63.00;;;;;;5095463;28;20032;-72
2022/07/14 00:27:26;;;;;;;5.82;2.30;;;20.40;63.00;;;;;;5113226;28;20055;-72
2022/07/14 00:29:52;;;;;;;6.53;1.98;;;20.50;63.10;;;;;;5113169;28;20028;-72
2022/07/14 00:32:17;;;;;;;4.40;1.95;;;20.60;62.90;;;;;;5113216;28;20024;-72
2022/07/14 00:34:43;;;;;;;7.90;2.42;;;20.60;62.80;;;;;;5113176;28;20054;-72
2022/07/14 00:37:08;;;;;;;7.65;2.40;;;20.50;62.90;;;;;;5113133;28;20028;-72
2022/07/14 00:42:38;;;;;;;7.95;2.25;;;20.40;63.10;;;;;;5113221;28;20068;-72
2022/07/14 00:45:06;;;;;;;7.10;2.05;;;20.40;63.20;;;;;;5078507;28;20027;-72
2022/07/14 00:47:32;;;;;;;7.53;2.30;;;20.30;63.40;;;;;;5113155;28;20086;-72
2022/07/14 00:49:58;;;;;;;6.32;2.30;;;20.30;64.00;;;;;;5095258;28;20046;-71
2022/07/14 00:52:26;;;;;;;10.23;2.60;;;20.20;64.30;;;;;;5112993;28;20028;-71
2022/07/14 00:54:52;;;;;;;4.90;2.10;;;20.20;64.40;;;;;;5112958;28;20031;-72
2022/07/14 00:57:18;;;;;;;6.28;2.15;;;20.30;64.10;;;;;;5112981;28;20024;-72
2022/07/14 00:59:45;;;;;;;5.80;2.60;;;20.30;63.80;;;;;;5112779;28;20119;-72
2022/07/14 01:02:11;;;;;;;5.22;2.15;;;20.30;63.70;;;;;;5095204;28;20028;-72
2022/07/14 01:04:37;;;;;;;6.80;2.00;;;20.30;63.60;;;;;;5116416;28;20076;-72
2022/07/14 01:07:03;;;;;;;6.47;1.92;;;20.30;63.70;;;;;;5116557;28;20071;-72
2022/07/14 01:09:28;;;;;;;7.70;2.17;;;20.20;64.00;;;;;;5116502;28;20028;-72
2022/07/14 01:11:54;;;;;;;9.55;2.50;;;20.10;64.30;;;;;;5116468;28;20044;-72
2022/07/14 01:14:20;;;;;;;6.10;2.22;;;20.10;64.30;;;;;;5098549;28;20024;-72
2022/07/14 01:16:46;;;;;;;7.40;2.63;;;20.00;64.60;;;;;;5116492;28;20028;-72
2022/07/14 01:19:12;;;;;;;8.25;2.47;;;20.00;64.80;;;;;;5116308;28;20024;-72
2022/07/14 01:21:37;;;;;;;7.30;2.20;;;20.00;64.60;;;;;;5116189;28;20040;-72
2022/07/14 01:24:03;;;;;;;9.65;3.20;;;20.10;64.50;;;;;;5116223;28;20033;-72
2022/07/14 01:26:29;;;;;;;7.53;2.50;;;20.00;64.40;;;;;;5116152;28;20022;-72
2022/07/14 01:28:54;;;;;;;8.80;2.38;;;20.00;64.50;;;;;;5116019;28;20024;-72
2022/07/14 01:31:20;;;;;;;6.10;2.33;;;20.00;64.60;;;;;;5098215;28;20036;-72
2022/07/14 01:33:46;;;;;;;9.05;2.80;;;20.00;64.50;;;;;;5116044;28;20032;-72
2022/07/14 01:36:11;;;;;;;7.30;2.20;;;20.00;64.60;;;;;;5098243;28;20054;-72
2022/07/14 01:38:37;;;;;;;5.78;2.90;;;19.90;64.80;;;;;;5098086;28;20032;-72
2022/07/14 01:41:02;;;;;;;7.80;2.50;;;19.90;65.20;;;;;;5098070;28;20036;-72
2022/07/14 01:43:29;;;;;;;7.32;2.60;;;19.90;65.30;;;;;;5115853;28;20024;-72
2022/07/14 01:45:55;;;;;;;5.07;2.30;;;19.90;65.00;;;;;;5097883;28;20020;-72
2022/07/14 01:48:20;;;;;;;4.00;2.35;;;19.90;65.00;;;;;;5115749;28;20032;-72
2022/07/14 01:50:46;;;;;;;8.23;2.65;;;19.90;65.30;;;;;;5115703;28;20028;-72
2022/07/14 01:53:13;;;;;;;7.68;2.55;;;19.80;65.20;;;;;;5097808;28;20054;-72
2022/07/14 01:55:38;;;;;;;6.05;2.60;;;19.70;65.60;;;;;;5115627;28;20016;-72
2022/07/14 01:58:04;;;;;;;9.52;2.85;;;19.70;65.70;;;;;;5115711;28;20028;-71
2022/07/14 02:00:31;;;;;;;8.57;2.38;;;19.70;65.90;;;;;;5097438;28;20056;-72
2022/07/14 02:02:56;;;;;;;6.97;2.78;;;19.60;66.00;;;;;;5080918;28;20032;-72
2022/07/14 02:05:22;;;;;;;9.13;2.35;;;19.70;66.20;;;;;;5115535;28;20032;-72
2022/07/14 02:07:48;;;;;;;8.38;2.35;;;19.70;66.80;;;;;;5115329;28;20028;-72
2022/07/14 02:12:58;;;;;;;8.75;3.05;;;19.80;65.50;;;;;;5115419;28;20100;-72
2022/07/14 02:15:23;;;;;;;10.13;2.65;;;19.80;66.30;;;;;;5115150;28;20032;-72
2022/07/14 02:17:49;;;;;;;11.65;2.90;;;19.80;65.50;;;;;;5115178;28;20025;-72
2022/07/14 02:20:15;;;;;;;6.93;2.63;;;19.70;65.80;;;;;;5097260;28;20051;-72
2022/07/14 02:22:40;;;;;;;5.03;2.42;;;19.70;65.70;;;;;;5115079;28;20024;-72
2022/07/14 02:25:07;;;;;;;8.25;2.88;;;19.80;65.70;;;;;;5115015;28;20029;-72
2022/07/14 02:27:33;;;;;;;6.90;2.60;;;19.80;65.70;;;;;;5114928;28;20024;-72
2022/07/14 02:29:59;;;;;;;5.93;2.50;;;19.60;65.80;;;;;;5114852;28;20027;-71
2022/07/14 02:32:24;;;;;;;7.88;3.00;;;19.40;66.20;;;;;;5114862;28;20032;-72
2022/07/14 02:34:50;;;;;;;8.32;2.50;;;19.40;66.40;;;;;;5096854;28;20032;-72
2022/07/14 02:37:16;;;;;;;8.18;2.55;;;19.40;66.50;;;;;;5097097;28;20068;-71
2022/07/14 02:39:41;;;;;;;6.85;2.72;;;19.40;66.30;;;;;;5114759;28;20083;-72
2022/07/14 02:42:07;;;;;;;7.15;2.60;;;19.50;67.00;;;;;;5079950;28;20077;-72
2022/07/14 02:44:33;;;;;;;6.00;2.50;;;19.50;66.00;;;;;;5114638;28;20028;-72
2022/07/14 02:46:58;;;;;;;11.85;3.47;;;19.50;65.90;;;;;;5114637;28;20031;-72
2022/07/14 02:49:24;;;;;;;8.05;2.80;;;19.50;65.80;;;;;;5114563;28;20028;-72
2022/07/14 02:51:49;;;;;;;6.43;3.13;;;19.40;65.70;;;;;;5079914;28;20031;-72
2022/07/14 02:54:15;;;;;;;8.18;2.40;;;19.20;65.70;;;;;;5079960;28;20043;-72
2022/07/14 02:56:40;;;;;;;7.00;2.58;;;19.20;65.60;;;;;;5079988;28;20028;-72
2022/07/14 02:59:07;;;;;;;7.32;2.80;;;19.20;65.60;;;;;;5114213;28;20044;-72
2022/07/14 03:01:33;;;;;;;5.22;2.03;;;19.20;65.80;;;;;;5114282;28;20024;-71
2022/07/14 03:03:59;;;;;;;7.80;2.47;;;19.20;65.80;;;;;;5114302;28;20128;-71
2022/07/14 03:06:25;;;;;;;5.18;2.47;;;19.10;65.90;;;;;;5114254;28;20031;-71
2022/07/14 03:08:50;;;;;;;6.82;2.53;;;19.00;65.60;;;;;;5114221;28;20024;-72
2022/07/14 03:11:16;;;;;;;7.85;3.10;;;18.90;66.10;;;;;;5114158;28;20399;-72
2022/07/14 03:13:42;;;;;;;5.75;2.58;;;18.90;66.30;;;;;;5114124;28;20088;-72
2022/07/14 03:16:09;;;;;;;6.55;2.60;;;18.90;66.40;;;;;;5114086;28;20028;-72
2022/07/14 03:18:42;;;;;;;9.43;2.75;;;18.90;66.30;;;;;;5096125;28;20040;-71
2022/07/14 03:21:09;;;;;;;5.72;2.33;;;19.00;66.20;;;;;;5096057;28;20032;-72
2022/07/14 03:23:34;;;;;;;8.65;2.83;;;19.00;66.10;;;;;;5113982;28;20099;-72
2022/07/14 03:26:01;;;;;;;6.47;2.67;;;18.90;66.20;;;;;;5113434;28;20020;-72
2022/07/14 03:28:27;;;;;;;7.10;2.67;;;18.80;66.30;;;;;;5113841;28;20020;-72
2022/07/14 03:30:55;;;;;;;7.40;2.78;;;18.70;66.60;;;;;;5096228;28;20024;-72
2022/07/14 03:33:21;;;;;;;7.65;2.30;;;18.70;66.60;;;;;;5113838;28;20038;-72
2022/07/14 03:35:48;;;;;;;3.75;1.90;;;18.60;66.20;;;;;;5113810;28;20047;-72
2022/07/14 03:38:13;;;;;;;3.70;1.90;;;18.50;66.20;;;;;;5113744;28;20027;-72
2022/07/14 03:40:39;;;;;;;8.30;2.47;;;18.40;66.70;;;;;;5113640;28;20032;-72
2022/07/14 03:43:05;;;;;;;5.45;2.10;;;18.30;67.10;;;;;;5113724;28;20494;-72
2022/07/14 03:45:30;;;;;;;5.28;2.15;;;18.40;67.20;;;;;;5113619;28;20035;-72
2022/07/14 03:47:56;;;;;;;8.43;2.55;;;18.50;67.10;;;;;;5113645;28;20039;-72
2022/07/14 03:50:22;;;;;;;5.93;2.58;;;18.50;66.80;;;;;;5113620;28;20028;-72
2022/07/14 03:52:47;;;;;;;7.70;2.33;;;18.50;66.70;;;;;;5113580;28;20107;-72
2022/07/14 03:55:13;;;;;;;4.90;2.40;;;18.50;66.80;;;;;;5113537;28;20049;-72
2022/07/14 03:57:39;;;;;;;4.90;2.33;;;18.50;66.10;;;;;;5095547;28;20051;-72
2022/07/14 04:00:06;;;;;;;7.38;2.60;;;18.30;66.30;;;;;;5113233;28;20111;-72
2022/07/14 04:02:31;;;;;;;8.20;2.15;;;18.40;66.70;;;;;;5113375;28;20025;-73
2022/07/14 04:04:57;;;;;;;7.75;2.28;;;18.30;65.90;;;;;;5113475;28;20035;-73
2022/07/14 04:07:23;;;;;;;8.30;2.92;;;18.30;66.00;;;;;;5113452;28;20050;-73
2022/07/14 04:09:49;;;;;;;8.15;2.28;;;18.20;66.70;;;;;;5113428;28;20024;-73
2022/07/14 04:12:15;;;;;;;6.00;1.95;;;18.10;67.20;;;;;;5113380;28;20032;-72
2022/07/14 04:14:41;;;;;;;7.70;2.50;;;18.10;67.60;;;;;;5113396;28;20028;-73
2022/07/14 04:17:07;;;;;;;8.73;2.53;;;18.10;67.60;;;;;;5113348;28;20032;-72
2022/07/14 04:19:32;;;;;;;6.55;2.65;;;18.20;67.50;;;;;;5078759;28;20028;-73
2022/07/14 04:21:59;;;;;;;8.13;2.42;;;18.10;67.40;;;;;;5113242;28;20063;-73
2022/07/14 04:24:25;;;;;;;7.85;2.83;;;18.00;68.10;;;;;;5113414;28;20016;-73
2022/07/14 04:26:51;;;;;;;8.18;2.70;;;18.00;67.80;;;;;;5113224;28;20024;-73
2022/07/14 04:29:16;;;;;;;4.20;2.72;;;18.10;67.80;;;;;;5095248;28;20034;-73
2022/07/14 04:31:42;;;;;;;4.97;2.40;;;18.00;67.60;;;;;;5113209;28;20035;-73
2022/07/14 04:34:07;;;;;;;5.13;2.70;;;17.90;67.90;;;;;;5113183;28;20034;-73
2022/07/14 04:36:33;;;;;;;5.40;2.53;;;17.90;68.70;;;;;;5113169;28;20035;-73
2022/07/14 04:38:58;;;;;;;4.70;2.15;;;17.90;68.40;;;;;;5098010;28;20032;-73
2022/07/14 04:41:25;;;;;;;7.53;2.60;;;17.90;68.70;;;;;;5099112;28;20036;-72
2022/07/14 04:43:51;;;;;;;8.52;2.65;;;17.90;68.90;;;;;;5117035;28;20099;-72
2022/07/14 04:46:16;;;;;;;8.00;2.80;;;17.90;69.10;;;;;;5116971;28;20028;-72
2022/07/14 04:54:10;;;;;;;10.60;2.90;;;18.00;69.20;;;;;;5116936;28;20050;-72
2022/07/14 04:56:36;;;;;;;9.45;2.50;;;18.00;69.50;;;;;;5116753;28;20063;-72
2022/07/14 04:59:02;;;;;;;5.22;2.85;;;18.00;69.60;;;;;;5098825;28;20039;-72
2022/07/14 05:01:28;;;;;;;9.27;3.42;;;18.00;70.60;;;;;;5116612;28;20059;-72
2022/07/14 05:03:53;;;;;;;9.55;2.80;;;18.00;69.70;;;;;;5082009;28;20051;-72
2022/07/14 05:06:19;;;;;;;6.88;2.42;;;18.00;69.70;;;;;;5116613;28;20051;-72
2022/07/14 05:08:44;;;;;;;7.65;2.40;;;18.00;70.10;;;;;;5116547;28;20035;-72
2022/07/14 05:11:10;;;;;;;10.32;2.97;;;18.00;71.40;;;;;;5098591;28;20042;-73
2022/07/14 05:13:36;;;;;;;6.15;2.70;;;18.00;70.50;;;;;;5116480;28;20032;-73
2022/07/14 05:16:02;;;;;;;12.13;3.00;;;18.00;70.50;;;;;;5116423;28;20024;-72
2022/07/14 05:18:28;;;;;;;7.05;2.90;;;18.10;70.80;;;;;;5116329;28;20017;-73
2022/07/14 05:20:53;;;;;;;8.70;2.53;;;18.10;70.70;;;;;;5116224;28;20062;-73
2022/07/14 05:23:19;;;;;;;11.82;2.65;;;18.20;70.80;;;;;;5116384;28;20050;-73
2022/07/14 05:25:44;;;;;;;8.68;2.58;;;18.20;70.80;;;;;;5116223;28;20024;-73
2022/07/14 05:28:10;;;;;;;8.18;2.88;;;18.30;70.70;;;;;;5116067;28;20028;-73
2022/07/14 05:30:36;;;;;;;5.78;2.67;;;18.30;70.80;;;;;;5116131;28;20024;-73
2022/07/14 05:33:01;;;;;;;9.27;2.92;;;18.40;70.60;;;;;;5116057;28;20095;-73
2022/07/14 05:35:27;;;;;;;9.15;3.08;;;18.40;70.30;;;;;;5116012;28;20039;-73
2022/07/14 05:37:53;;;;;;;10.13;3.10;;;18.40;70.40;;;;;;5115921;28;20028;-73
2022/07/14 05:40:18;;;;;;;6.53;2.83;;;18.40;70.60;;;;;;5115854;28;20030;-73
2022/07/14 05:42:44;;;;;;;11.23;2.53;;;18.50;70.30;;;;;;5116001;28;20025;-73
2022/07/14 05:45:12;;;;;;;7.88;2.33;;;18.40;70.10;;;;;;5115852;28;20028;-73
2022/07/14 05:47:38;;;;;;;11.75;2.95;;;18.40;70.30;;;;;;5115730;28;20040;-73
2022/07/14 05:50:04;;;;;;;8.52;2.47;;;18.40;70.30;;;;;;5115365;28;20031;-73
2022/07/14 05:52:30;;;;;;;5.50;2.53;;;18.40;70.30;;;;;;5115831;28;20028;-73
2022/07/14 05:55:01;;;;;;;7.40;2.53;;;18.40;70.80;;;;;;5115698;28;20024;-72
2022/07/14 05:57:27;;;;;;;7.97;2.47;;;18.50;70.90;;;;;;5115498;28;20056;-73
2022/07/14 05:59:52;;;;;;;11.15;2.58;;;18.50;70.70;;;;;;5115531;28;20043;-73
2022/07/14 06:02:18;;;;;;;9.75;2.55;;;18.60;70.80;;;;;;5115436;28;20032;-73
2022/07/14 06:04:44;;;;;;;9.23;2.60;;;18.60;71.10;;;;;;5115418;28;20043;-73
2022/07/14 06:07:10;;;;;;;9.82;3.13;;;18.60;70.90;;;;;;5115319;28;20048;-73
2022/07/14 06:09:37;;;;;;;8.60;2.72;;;18.70;70.40;;;;;;5115353;28;20020;-73
2022/07/14 06:12:08;;;;;;;6.25;2.35;;;18.70;70.20;;;;;;5115310;28;20032;-73
2022/07/14 06:14:33;;;;;;;10.15;2.33;;;18.90;70.40;;;;;;5115421;28;20455;-74
2022/07/14 06:16:59;;;;;;;8.57;2.80;;;18.90;70.00;;;;;;5115235;28;20034;-73
2022/07/14 06:19:25;;;;;;;9.25;2.38;;;18.90;69.60;;;;;;5115155;28;20050;-73
2022/07/14 06:21:50;;;;;;;7.38;2.25;;;19.00;69.60;;;;;;5115082;28;20028;-73
2022/07/14 06:24:16;;;;;;;8.35;2.17;;;19.00;69.60;;;;;;5115180;28;20479;-73
2022/07/14 06:26:42;;;;;;;8.98;2.20;;;19.10;70.10;;;;;;5115014;28;20040;-73
2022/07/14 06:29:08;;;;;;;10.07;2.25;;;19.10;68.60;;;;;;5114864;28;20020;-73
2022/07/14 06:31:35;;;;;;;9.52;2.67;;;19.10;68.70;;;;;;5114926;28;20046;-73
2022/07/14 06:34:01;;;;;;;9.13;2.25;;;19.20;68.70;;;;;;5114888;28;20035;-73
2022/07/14 06:36:27;;;;;;;6.03;2.20;;;19.20;68.50;;;;;;5114853;28;20030;-73
2022/07/14 06:38:53;;;;;;;10.63;2.45;;;19.30;68.30;;;;;;5114925;28;20024;-73
2022/07/14 06:41:20;;;;;;;9.73;2.60;;;19.40;68.00;;;;;;5114707;28;20502;-73
2022/07/14 06:43:46;;;;;;;6.20;2.47;;;19.30;67.30;;;;;;5114705;28;20088;-73
2022/07/14 06:46:16;;;;;;;6.97;2.70;;;19.30;67.50;;;;;;5114662;28;20024;-73
2022/07/14 06:48:42;;;;;;;11.93;2.88;;;19.40;67.30;;;;;;5114614;28;20024;-73
2022/07/14 06:51:07;;;;;;;9.57;3.13;;;19.50;67.30;;;;;;5114536;28;20039;-73
2022/07/14 06:53:33;;;;;;;9.65;2.45;;;19.50;66.90;;;;;;5096782;28;20031;-72
2022/07/14 06:55:59;;;;;;;9.43;3.30;;;19.50;66.70;;;;;;5114512;28;20076;-72
2022/07/14 06:58:24;;;;;;;12.25;3.15;;;19.60;66.50;;;;;;5114427;28;20101;-71
2022/07/14 07:00:50;;;;;;;8.40;3.30;;;19.60;66.10;;;;;;5113375;28;20044;-71
2022/07/14 07:03:15;;;;;;;9.90;2.95;;;19.70;65.90;;;;;;5114350;28;20035;-72
2022/07/14 07:08:28;;;;;;;9.18;2.80;;;19.80;65.90;;;;;;5099341;28;20035;-71
2022/07/14 07:10:55;;;;;;;6.45;2.15;;;19.80;65.40;;;;;;5114194;28;20016;-72
2022/07/14 07:13:21;;;;;;;7.80;2.30;;;19.80;65.50;;;;;;5114188;28;20031;-72
2022/07/14 07:15:47;;;;;;;8.68;2.60;;;19.90;65.50;;;;;;5114034;28;20028;-71
2022/07/14 07:18:12;;;;;;;6.82;2.25;;;19.90;65.30;;;;;;5114080;28;20040;-73
2022/07/14 07:20:38;;;;;;;7.30;2.30;;;19.80;64.50;;;;;;5114004;28;20028;-73
2022/07/14 07:23:04;;;;;;;11.88;3.20;;;19.80;64.70;;;;;;5096074;28;20028;-73
2022/07/14 07:25:30;;;;;;;9.70;2.40;;;19.80;65.20;;;;;;5095974;28;20028;-73
2022/07/14 07:27:56;;;;;;;12.95;2.55;;;19.90;65.30;;;;;;5113888;28;20020;-72
2022/07/14 07:30:22;;;;;;;7.03;2.45;;;20.00;65.10;;;;;;5113883;28;20028;-72
2022/07/14 07:32:47;;;;;;;7.68;2.80;;;20.00;64.90;;;;;;5113863;28;20016;-73
2022/07/14 07:35:13;;;;;;;7.90;2.60;;;20.10;64.20;;;;;;5095910;28;20056;-72
2022/07/14 07:37:39;;;;;;;7.80;2.20;;;20.10;65.10;;;;;;5113802;28;20028;-72
2022/07/14 07:40:05;;;;;;;5.72;2.47;;;20.10;64.50;;;;;;5113663;28;20024;-72
2022/07/14 07:42:31;;;;;;;6.85;2.53;;;20.20;64.20;;;;;;5113700;28;20042;-72
2022/07/14 07:44:57;;;;;;;8.00;2.28;;;20.20;64.30;;;;;;5113679;28;20104;-72
2022/07/14 07:47:24;;;;;;;6.10;2.08;;;20.30;63.90;;;;;;5113663;28;20016;-73
2022/07/14 07:49:50;;;;;;;6.13;2.63;;;20.30;63.40;;;;;;5113610;28;20023;-72
2022/07/14 07:52:16;;;;;;;5.10;2.15;;;20.40;63.40;;;;;;5113571;28;20032;-72
2022/07/14 07:54:44;;;;;;;9.32;2.00;;;20.40;63.50;;;;;;5113701;28;20043;-72
2022/07/14 07:57:11;;;;;;;6.28;2.22;;;20.50;62.90;;;;;;5096245;28;20024;-72
2022/07/14 07:59:36;;;;;;;5.63;1.90;;;20.50;63.30;;;;;;5095708;28;20046;-72
2022/07/14 08:02:02;;;;;;;5.53;1.90;;;20.60;62.90;;;;;;5113559;28;20044;-72
2022/07/14 08:04:28;;;;;;;6.93;1.90;;;20.70;62.30;;;;;;5113454;28;20028;-72
2022/07/14 08:06:53;;;;;;;8.18;1.83;;;20.70;61.80;;;;;;5113445;28;20080;-72
2022/07/14 08:09:19;;;;;;;5.82;1.70;;;20.70;61.80;;;;;;5113433;28;20032;-72
2022/07/14 08:11:44;;;;;;;6.90;1.70;;;20.80;61.90;;;;;;5114153;28;20028;-72
2022/07/14 08:16:57;;;;;;;4.80;1.67;;;20.90;61.70;;;;;;5117717;28;20043;-72
2022/07/14 08:19:22;;;;;;;4.63;1.80;;;21.00;61.30;;;;;;5117573;28;20058;-72
2022/07/14 08:21:48;;;;;;;6.00;1.73;;;21.10;62.10;;;;;;5117388;28;20032;-72
2022/07/14 08:24:14;;;;;;;5.13;1.88;;;21.10;60.90;;;;;;5117428;28;20054;-72
2022/07/14 08:26:40;;;;;;;5.65;1.70;;;21.20;60.10;;;;;;5117362;28;20039;-72
2022/07/14 08:29:07;;;;;;;6.05;1.60;;;21.20;60.20;;;;;;5117224;28;20024;-72
2022/07/14 08:31:32;;;;;;;5.00;1.80;;;21.20;60.00;;;;;;5117258;28;20116;-72
2022/07/14 08:33:58;;;;;;;6.15;1.70;;;21.30;60.50;;;;;;5117207;28;20042;-72
2022/07/14 08:36:24;;;;;;;5.80;1.45;;;21.40;59.20;;;;;;5117211;28;20039;-71
2022/07/14 08:38:49;;;;;;;3.47;1.30;;;21.40;58.50;;;;;;5099187;28;20032;-72
2022/07/14 08:41:15;;;;;;;6.03;1.70;;;21.50;58.20;;;;;;5117026;28;20028;-72
2022/07/14 08:43:42;;;;;;;6.50;1.80;;;21.50;58.50;;;;;;5099083;28;20035;-71
2022/07/14 08:46:08;;;;;;;7.50;2.10;;;21.50;58.80;;;;;;5116988;28;20088;-72
2022/07/14 08:48:34;;;;;;;5.47;1.50;;;21.60;58.20;;;;;;5116942;28;20020;-71
2022/07/14 08:51:00;;;;;;;6.22;1.50;;;21.70;57.90;;;;;;5116863;28;20032;-71
2022/07/14 08:53:27;;;;;;;6.28;1.40;;;21.70;57.70;;;;;;5116872;28;20039;-72
2022/07/14 08:55:53;;;;;;;6.63;1.40;;;21.80;57.40;;;;;;5116834;28;20092;-71
2022/07/14 08:58:18;;;;;;;6.30;1.48;;;21.80;57.30;;;;;;5116778;28;20039;-72
2022/07/14 09:00:44;;;;;;;3.05;1.33;;;21.80;56.80;;;;;;5116458;28;20073;-71
2022/07/14 09:03:10;;;;;;;5.95;1.20;;;21.90;57.20;;;;;;5098762;28;20024;-72
2022/07/14 09:05:41;;;;;;;6.03;1.25;;;22.00;56.30;;;;;;5116579;28;20050;-71
2022/07/14 09:08:06;;;;;;;5.45;1.40;;;22.00;56.00;;;;;;5116668;28;20024;-71
2022/07/14 09:10:32;;;;;;;6.70;1.30;;;22.10;56.30;;;;;;5116515;28;20050;-71
2022/07/14 09:13:21;;;;;;;5.40;1.50;;;22.20;56.20;;;;;;5116681;28;20028;-71
2022/07/14 09:15:48;;;;;;;4.68;1.30;;;22.20;54.00;;;;;;5116489;28;20031;-72
2022/07/14 09:18:25;;;;;;;4.65;1.27;;;22.20;55.10;;;;;;5116425;28;20112;-71
2022/07/14 09:20:53;;;;;;;4.68;1.00;;;22.30;54.80;;;;;;5116265;28;20033;-72
2022/07/14 09:23:35;;;;;;;4.18;1.17;;;22.30;54.20;;;;;;5115556;28;20087;-72
2022/07/14 09:26:14;;;;;;;4.97;1.45;;;22.30;52.00;;;;;;5116309;28;20024;-72
2022/07/14 09:28:44;;;;;;;2.92;0.80;;;22.40;53.30;;;;;;5116180;28;20066;-72
2022/07/14 09:31:30;;;;;;;3.42;1.00;;;22.50;51.80;;;;;;5116192;28;20044;-72
2022/07/14 09:33:57;;;;;;;4.50;0.90;;;22.40;50.40;;;;;;5116277;28;20024;-72
2022/07/14 09:36:33;;;;;;;5.25;1.17;;;22.50;51.50;;;;;;5115991;28;20032;-72
2022/07/14 09:39:01;;;;;;;3.33;0.93;;;22.50;50.80;;;;;;5116071;28;20050;-72
2022/07/14 09:41:29;;;;;;;5.07;1.30;;;22.60;50.50;;;;;;5098256;28;20046;-71
2022/07/14 09:44:18;;;;;;;3.05;1.00;;;22.60;51.10;;;;;;5115912;28;20047;-72
2022/07/14 09:46:51;;;;;;;5.20;1.20;;;22.60;49.10;;;;;;5115874;28;20036;-72
2022/07/14 09:49:18;;;;;;;6.25;1.50;;;22.40;49.90;;;;;;5097748;28;20024;-72
2022/07/14 09:51:58;;;;;;;5.22;1.65;;;22.40;51.60;;;;;;5115752;28;20027;-72
2022/07/14 09:54:46;;;;;;;4.82;1.40;;;22.50;52.00;;;;;;5115737;28;20087;-71
2022/07/14 09:57:15;;;;;;;8.68;1.38;;;22.50;51.40;;;;;;5115631;28;20027;-72
2022/07/14 09:59:52;;;;;;;8.15;1.35;;;22.50;52.70;;;;;;5115398;28;20047;-72
2022/07/14 10:02:29;;;;;;;8.07;1.67;;;22.50;53.30;;;;;;5115519;28;20047;-71
2022/07/14 10:05:05;;;;;;;6.90;1.88;;;22.60;51.90;;;;;;5115525;28;20050;-72
2022/07/14 10:07:36;;;;;;;6.28;1.38;;;22.70;52.40;;;;;;5115487;28;20042;-71
2022/07/14 10:10:02;;;;;;;5.72;1.30;;;22.90;51.00;;;;;;5115413;28;20024;-72
2022/07/14 10:12:29;;;;;;;4.32;1.50;;;23.00;51.60;;;;;;5097403;28;20031;-72
2022/07/14 10:14:59;;;;;;;4.15;1.70;;;23.10;51.90;;;;;;5115310;28;20075;-72
2022/07/14 10:17:26;;;;;;;4.70;1.48;;;23.30;51.40;;;;;;5115275;28;20084;-72
2022/07/14 10:19:53;;;;;;;7.45;1.38;;;23.30;51.10;;;;;;5097590;28;20066;-72
2022/07/14 10:22:18;;;;;;;5.13;1.50;;;23.40;50.90;;;;;;5115067;28;20047;-72
2022/07/14 10:24:45;;;;;;;3.50;1.15;;;23.40;50.70;;;;;;5115109;28;20032;-72
2022/07/14 10:27:11;;;;;;;3.95;1.23;;;23.50;50.80;;;;;;5115052;28;20046;-72
2022/07/14 10:29:37;;;;;;;3.88;1.13;;;23.60;48.70;;;;;;5115106;28;20016;-72
2022/07/14 10:32:30;;;;;;;5.13;1.75;;;23.70;46.80;;;;;;5114997;28;20024;-72
2022/07/14 10:35:41;;;;;;;2.33;1.10;;;23.80;47.20;;;;;;5114278;28;20058;-72
2022/07/14 10:38:22;;;;;;;2.50;1.20;;;24.00;45.60;;;;;;5115029;28;20027;-72
2022/07/14 10:40:54;;;;;;;3.42;1.40;;;24.10;46.50;;;;;;5114728;28;20051;-72
2022/07/14 10:43:24;;;;;;;3.67;1.10;;;24.20;46.60;;;;;;5097171;28;20016;-72
2022/07/14 10:45:52;;;;;;;2.38;1.10;;;24.30;46.20;;;;;;5114766;28;20442;-72
2022/07/14 10:48:37;;;;;;;3.08;1.50;;;24.40;45.70;;;;;;5114667;28;20016;-72
2022/07/14 10:51:29;;;;;;;3.30;1.30;;;24.40;44.00;;;;;;5114529;28;20020;-72
2022/07/14 10:54:08;;;;;;;1.50;1.10;;;24.30;43.70;;;;;;5114640;28;20119;-72
2022/07/14 10:56:35;;;;;;;3.95;1.48;;;24.30;44.70;;;;;;5096560;28;20031;-71
2022/07/14 10:59:38;;;;;;;3.13;1.23;;;24.50;45.60;;;;;;5114207;28;20073;-72
2022/07/14 11:02:13;;;;;;;3.95;1.20;;;24.60;45.00;;;;;;5114529;28;20039;-71
2022/07/14 11:05:00;;;;;;;4.78;1.58;;;24.60;45.50;;;;;;5114380;28;20042;-72
2022/07/14 11:07:51;;;;;;;3.80;1.40;;;24.70;43.80;;;;;;5096341;28;20031;-72
2022/07/14 11:10:19;;;;;;;3.13;1.30;;;24.60;44.50;;;;;;5114244;28;20418;-72
2022/07/14 11:13:03;;;;;;;3.20;1.20;;;24.70;44.50;;;;;;5096245;28;20035;-72
2022/07/14 11:15:44;;;;;;;4.38;1.40;;;24.70;44.60;;;;;;5114187;28;20027;-72
2022/07/14 11:18:34;;;;;;;6.28;1.20;;;24.70;43.80;;;;;;5096217;28;20016;-72
2022/07/14 11:21:17;;;;;;;15.05;1.48;;;24.80;43.20;;;;;;5081622;28;20032;-72
2022/07/14 11:23:46;;;;;;;4.72;1.20;;;24.80;43.00;;;;;;5096097;28;20043;-72
2022/07/14 11:26:32;;;;;;;2.47;1.20;;;24.90;43.20;;;;;;5113956;28;20031;-71
2022/07/14 11:28:59;;;;;;;6.25;1.42;;;25.00;42.40;;;;;;5079124;28;20394;-72
2022/07/14 11:31:25;;;;;;;4.40;1.58;;;25.00;42.60;;;;;;5113887;28;20039;-72
2022/07/14 11:36:39;;;;;;;4.07;1.27;;;25.20;42.20;;;;;;5114109;28;20129;-71
2022/07/14 11:39:18;;;;;;;2.85;1.30;;;25.30;42.20;;;;;;5113804;28;20024;-72
2022/07/14 11:42:07;;;;;;;3.13;1.50;;;25.30;42.10;;;;;;5113827;28;20051;-71
2022/07/14 11:44:35;;;;;;;2.70;1.25;;;25.30;40.70;;;;;;5113906;28;20048;-72
2022/07/14 11:47:04;;;;;;;1.48;1.20;;;25.20;39.90;;;;;;5095396;28;20033;-72
2022/07/14 11:49:31;;;;;;;4.40;1.52;;;25.10;40.30;;;;;;5113698;28;20031;-72
2022/07/14 11:51:58;;;;;;;1.45;1.20;;;25.10;40.20;;;;;;5113600;28;20087;-72
2022/07/14 11:54:25;;;;;;;3.17;1.33;;;25.00;40.20;;;;;;5113597;28;20035;-72
2022/07/14 11:57:06;;;;;;;5.70;1.33;;;25.10;40.00;;;;;;5095795;28;20028;-72
2022/07/14 11:59:39;;;;;;;2.28;1.30;;;25.10;39.40;;;;;;5113338;28;20051;-72
2022/07/14 12:02:20;;;;;;;2.75;1.33;;;25.10;41.50;;;;;;5095600;28;20025;-72
2022/07/14 12:04:49;;;;;;;2.88;1.55;;;25.30;41.40;;;;;;5113517;28;20024;-72
2022/07/14 12:07:15;;;;;;;2.17;1.33;;;25.40;40.40;;;;;;5113444;28;20028;-72
2022/07/14 12:09:42;;;;;;;3.00;1.40;;;25.50;41.00;;;;;;5113438;28;20089;-72
2022/07/14 12:12:08;;;;;;;4.25;1.50;;;25.50;40.20;;;;;;5113415;28;20024;-72
2022/07/14 12:14:46;;;;;;;3.08;1.20;;;25.60;40.00;;;;;;5113374;28;20054;-72
2022/07/14 12:17:11;;;;;;;3.95;1.50;;;25.70;39.50;;;;;;5095540;28;20099;-72
2022/07/14 12:19:37;;;;;;;4.63;1.40;;;25.70;39.70;;;;;;5113377;28;20028;-72
2022/07/14 12:22:05;;;;;;;5.57;1.40;;;25.60;40.00;;;;;;5113264;28;20032;-72
2022/07/14 12:24:31;;;;;;;2.70;1.40;;;25.70;40.70;;;;;;5113346;28;20111;-72
2022/07/14 12:26:59;;;;;;;3.05;1.50;;;25.70;40.20;;;;;;5113282;28;20032;-72
2022/07/14 12:29:26;;;;;;;4.15;1.30;;;25.80;40.60;;;;;;5095288;28;20024;-72
2022/07/14 12:31:51;;;;;;;2.10;1.02;;;25.80;40.70;;;;;;5113251;28;20035;-72
2022/07/14 12:34:18;;;;;;;5.20;2.70;;;25.80;40.90;;;;;;5113209;28;20032;-72
2022/07/14 12:36:44;;;;;;;7.28;2.88;;;25.80;41.50;;;;;;5113212;28;20020;-72
2022/07/14 12:39:11;;;;;;;7.47;1.90;;;25.90;41.10;;;;;;5113202;28;20050;-72
2022/07/14 12:41:39;;;;;;;3.00;1.70;;;25.90;40.80;;;;;;5113077;28;20027;-72
2022/07/14 12:44:06;;;;;;;2.70;1.40;;;25.90;40.90;;;;;;5113143;28;20035;-72
2022/07/14 12:46:32;;;;;;;4.45;1.60;;;25.80;40.90;;;;;;5113106;28;20054;-72
2022/07/14 12:49:08;;;;;;;4.35;1.33;;;25.80;40.90;;;;;;5113111;28;20080;-72
2022/07/14 12:51:36;;;;;;;3.05;1.08;;;25.70;40.00;;;;;;5095244;28;20032;-72
2022/07/14 12:54:15;;;;;;;2.22;1.10;;;25.50;40.30;;;;;;5113031;28;20027;-72
2022/07/14 12:56:41;;;;;;;9.57;2.10;;;25.50;40.50;;;;;;5113095;28;20032;-72
2022/07/14 12:59:10;;;;;;;3.92;1.48;;;25.40;40.60;;;;;;5096051;28;20486;-72
2022/07/14 13:01:47;;;;;;;31.17;3.20;;;25.30;40.90;;;;;;5116728;28;20028;-72
2022/07/14 13:04:18;;;;;;;8.82;1.85;;;25.30;41.00;;;;;;5116736;28;20097;-72
2022/07/14 13:06:45;;;;;;;1.65;1.10;;;25.30;40.90;;;;;;5116715;28;20027;-72
2022/07/14 13:09:16;;;;;;;5.88;1.60;;;25.20;40.80;;;;;;5116636;28;20073;-72